Historyczne dane pomiarowe

Dodano dane terminowe – wersja testowa.

Dane z okresu 1951-2019

Wersja bazy: 1.34 [2019-03-16, lista zmian], aktualizacja planowana na 2019-04-15

Dane meteo z obszaru Polski uzyskane na podstawie danych udostępnionych przez Instytut Meteorologii i Gospodarki Wodnej – Państwowy Instytut Badawczy.

 

Wybierz Datę:    

       

TemperaturaWilgotnośćWiatrCiśnienieOpadyŚniegCzas trwania zjawisk
 Stacja t tx tn tng RH VA  wxwx mslp ppp RRR   cm mm wxwxwxwxwxwxwx
1983-08-13 14.4 19.2 11.4--- 5.0 2.0---- 5.0------------
1983-08-14 14.2 16.2 11.1--- 3.7 3.3---- 0.7------------
1983-08-15 16.2 21.5 7.8--- 0.0 1.3---- 0.0------------
1983-08-16 20.4 23.8 12.6--- 0.0 7.0---- 0.0------------
1983-08-17 21.5 26.2 14.0--- 1.3 2.3---- 0.0------------
1983-08-18 19.7 25.0 13.8--- 4.3 0.7---- 0.0------------
1983-08-19 18.8 24.4 11.6--- 0.0 1.0---- 0.0------------
1983-08-20 17.9 23.7 9.7--- 2.7 1.3---- 0.0------------
1983-08-21 19.7 25.0 9.7--- 0.0 1.0---- 0.0------------
1983-08-22 19.6 25.5 11.6--- 0.0 1.3---- 0.0------------
1983-08-23 19.4 25.5 11.8--- 2.7 1.3---- 0.0------------
1983-08-24 20.9 26.4 11.2--- 3.0 1.0---- 0.0------------
1983-08-25 19.6 25.7 13.8--- 0.0 1.3---- 0.0------------
1983-08-26 17.7 23.0 12.4--- 0.0 1.3---- 0.0------------
1983-08-27 16.1 23.0 7.6--- 0.0 1.0---- 0.0------------
1983-08-28 17.4 25.0 8.7--- 2.3 1.0---- 0.0------------
1983-08-29 16.8 21.8 10.7--- 7.0 1.3---- 0.0------------
1983-08-30 15.8 21.9 8.4--- 0.0 3.7---- 0.0------------
1983-08-31 18.5 26.9 7.3--- 0.3 0.7---- 0.0------------
1983-09-01 18.0 27.1 10.1--- 0.0 0.7---- 0.0------------
1983-09-02 18.0 27.3 9.5--- 0.0 1.7---- 0.0------------
1983-09-03 19.0 26.1 9.7--- 2.7 4.7---- 1.0------------
1983-09-04 13.0 19.0 11.3--- 8.0 0.0---- 4.3------------
1983-09-05 16.0 21.3 11.4--- 4.3 1.0---- 0.0------------
1983-09-06 14.9 18.6 11.8--- 2.3 2.0---- 0.0------------
1983-09-07 9.8 13.6 8.3--- 5.0 1.3---- 0.5------------
1983-09-08 10.6 16.0 7.6--- 5.0 2.3---- 0.0------------
1983-09-09 14.0 20.0 3.9--- 5.0 8.0---- 0.0------------
1983-09-10 19.8 24.8 15.5--- 2.7 3.7---- 0.0------------
1983-09-11 22.7 26.9 20.1--- 0.0 3.0---- 0.7------------
114.9 ms

 

Źródłem pochodzenia danych jest Instytut Meteorologii i Gospodarki Wodnej – Państwowy Instytut Badawczy. Dane Instytutu Meteorologii i Gospodarki Wodnej – Państwowego Instytutu Badawczego zostały przetworzone.

Dane źródłowe można odnaleźć na stronie https://dane.imgw.pl